sensor_id;sensor_type;location;lat;lon;timestamp;P1;durP1;ratioP1;P2;durP2;ratioP2
4144;SDS011;2086;51.050;6.982;2022-07-19T00:00:35;1.57;;;1.27;;
4144;SDS011;2086;51.050;6.982;2022-07-19T00:03:01;0.93;;;0.93;;
4144;SDS011;2086;51.050;6.982;2022-07-19T00:05:26;5.57;;;1.30;;
4144;SDS011;2086;51.050;6.982;2022-07-19T00:07:51;1.40;;;1.30;;
4144;SDS011;2086;51.050;6.982;2022-07-19T00:10:17;1.80;;;1.40;;
4144;SDS011;2086;51.050;6.982;2022-07-19T00:12:43;1.57;;;1.47;;
4144;SDS011;2086;51.050;6.982;2022-07-19T00:15:09;2.87;;;1.50;;
4144;SDS011;2086;51.050;6.982;2022-07-19T00:17:37;0.97;;;0.97;;
4144;SDS011;2086;51.050;6.982;2022-07-19T00:20:03;1.47;;;1.30;;
4144;SDS011;2086;51.050;6.982;2022-07-19T00:22:28;1.90;;;1.80;;
4144;SDS011;2086;51.050;6.982;2022-07-19T00:24:54;0.90;;;0.90;;
4144;SDS011;2086;51.050;6.982;2022-07-19T00:27:20;1.27;;;0.97;;
4144;SDS011;2086;51.050;6.982;2022-07-19T00:29:45;1.33;;;1.23;;
4144;SDS011;2086;51.050;6.982;2022-07-19T00:32:10;5.60;;;1.30;;
4144;SDS011;2086;51.050;6.982;2022-07-19T00:34:36;2.23;;;1.30;;
4144;SDS011;2086;51.050;6.982;2022-07-19T00:37:01;1.27;;;1.17;;
4144;SDS011;2086;51.050;6.982;2022-07-19T00:39:26;1.50;;;1.40;;
4144;SDS011;2086;51.050;6.982;2022-07-19T00:41:51;2.93;;;1.63;;
4144;SDS011;2086;51.050;6.982;2022-07-19T00:44:17;2.50;;;1.33;;
4144;SDS011;2086;51.050;6.982;2022-07-19T00:46:45;1.40;;;1.30;;
4144;SDS011;2086;51.050;6.982;2022-07-19T00:49:11;3.23;;;1.50;;
4144;SDS011;2086;51.050;6.982;2022-07-19T00:51:37;1.67;;;1.57;;
4144;SDS011;2086;51.050;6.982;2022-07-19T00:54:03;1.50;;;1.40;;
4144;SDS011;2086;51.050;6.982;2022-07-19T00:56:29;5.03;;;1.53;;
4144;SDS011;2086;51.050;6.982;2022-07-19T00:58:54;2.80;;;2.03;;
4144;SDS011;2086;51.050;6.982;2022-07-19T01:01:20;7.83;;;1.60;;
4144;SDS011;2086;51.050;6.982;2022-07-19T01:03:45;1.90;;;1.80;;
4144;SDS011;2086;51.050;6.982;2022-07-19T01:06:11;2.43;;;1.40;;
4144;SDS011;2086;51.050;6.982;2022-07-19T01:08:36;1.83;;;1.50;;
4144;SDS011;2086;51.050;6.982;2022-07-19T01:11:03;1.40;;;1.40;;
4144;SDS011;2086;51.050;6.982;2022-07-19T01:13:28;1.00;;;1.00;;
4144;SDS011;2086;51.050;6.982;2022-07-19T01:15:53;2.20;;;1.50;;
4144;SDS011;2086;51.050;6.982;2022-07-19T01:18:18;1.40;;;1.30;;
4144;SDS011;2086;51.050;6.982;2022-07-19T01:20:44;1.30;;;1.23;;
4144;SDS011;2086;51.050;6.982;2022-07-19T01:23:09;3.53;;;1.43;;
4144;SDS011;2086;51.050;6.982;2022-07-19T01:25:35;1.40;;;1.10;;
4144;SDS011;2086;51.050;6.982;2022-07-19T01:28:02;2.80;;;1.23;;
4144;SDS011;2086;51.050;6.982;2022-07-19T01:30:28;1.60;;;1.50;;
4144;SDS011;2086;51.050;6.982;2022-07-19T01:32:54;5.43;;;1.90;;
4144;SDS011;2086;51.050;6.982;2022-07-19T01:35:19;1.50;;;1.40;;
4144;SDS011;2086;51.050;6.982;2022-07-19T01:37:45;4.27;;;1.63;;
4144;SDS011;2086;51.050;6.982;2022-07-19T01:40:11;2.80;;;1.53;;
4144;SDS011;2086;51.050;6.982;2022-07-19T01:42:37;1.60;;;1.50;;
4144;SDS011;2086;51.050;6.982;2022-07-19T01:45:02;1.67;;;1.50;;
4144;SDS011;2086;51.050;6.982;2022-07-19T01:47:28;22.87;;;2.17;;
4144;SDS011;2086;51.050;6.982;2022-07-19T01:49:53;1.70;;;1.60;;
4144;SDS011;2086;51.050;6.982;2022-07-19T01:52:18;1.73;;;1.67;;
4144;SDS011;2086;51.050;6.982;2022-07-19T01:54:43;6.20;;;1.50;;
4144;SDS011;2086;51.050;6.982;2022-07-19T01:57:09;0.97;;;0.97;;
4144;SDS011;2086;51.050;6.982;2022-07-19T01:59:38;1.70;;;1.00;;
4144;SDS011;2086;51.050;6.982;2022-07-19T02:02:03;1.77;;;1.10;;
4144;SDS011;2086;51.050;6.982;2022-07-19T02:04:29;1.30;;;1.20;;
4144;SDS011;2086;51.050;6.982;2022-07-19T02:06:54;1.60;;;1.50;;
4144;SDS011;2086;51.050;6.982;2022-07-19T02:09:19;2.93;;;1.30;;
4144;SDS011;2086;51.050;6.982;2022-07-19T02:11:45;1.60;;;1.50;;
4144;SDS011;2086;51.050;6.982;2022-07-19T02:14:10;1.07;;;1.07;;
4144;SDS011;2086;51.050;6.982;2022-07-19T02:16:35;1.43;;;1.33;;
4144;SDS011;2086;51.050;6.982;2022-07-19T02:19:01;1.00;;;1.00;;
4144;SDS011;2086;51.050;6.982;2022-07-19T02:21:26;0.83;;;0.83;;
4144;SDS011;2086;51.050;6.982;2022-07-19T02:23:52;3.27;;;1.07;;
4144;SDS011;2086;51.050;6.982;2022-07-19T02:26:17;0.97;;;0.97;;
4144;SDS011;2086;51.050;6.982;2022-07-19T02:28:42;1.60;;;1.50;;
4144;SDS011;2086;51.050;6.982;2022-07-19T02:31:08;0.90;;;0.90;;
4144;SDS011;2086;51.050;6.982;2022-07-19T02:33:33;1.03;;;1.03;;
4144;SDS011;2086;51.050;6.982;2022-07-19T02:35:58;1.70;;;1.60;;
4144;SDS011;2086;51.050;6.982;2022-07-19T02:38:23;1.40;;;1.00;;
4144;SDS011;2086;51.050;6.982;2022-07-19T02:40:49;1.10;;;1.00;;
4144;SDS011;2086;51.050;6.982;2022-07-19T02:43:14;1.13;;;1.00;;
4144;SDS011;2086;51.050;6.982;2022-07-19T02:45:39;1.37;;;1.17;;
4144;SDS011;2086;51.050;6.982;2022-07-19T02:48:05;2.20;;;1.57;;
4144;SDS011;2086;51.050;6.982;2022-07-19T02:50:33;1.17;;;1.17;;
4144;SDS011;2086;51.050;6.982;2022-07-19T02:52:58;1.30;;;1.20;;
4144;SDS011;2086;51.050;6.982;2022-07-19T02:55:23;4.23;;;1.67;;
4144;SDS011;2086;51.050;6.982;2022-07-19T02:57:48;1.70;;;1.60;;
4144;SDS011;2086;51.050;6.982;2022-07-19T03:00:14;2.50;;;1.20;;
4144;SDS011;2086;51.050;6.982;2022-07-19T03:02:39;1.57;;;1.47;;
4144;SDS011;2086;51.050;6.982;2022-07-19T03:05:05;0.80;;;0.80;;
4144;SDS011;2086;51.050;6.982;2022-07-19T03:07:30;1.17;;;1.07;;
4144;SDS011;2086;51.050;6.982;2022-07-19T03:09:56;1.90;;;1.30;;
4144;SDS011;2086;51.050;6.982;2022-07-19T03:12:21;1.43;;;1.33;;
4144;SDS011;2086;51.050;6.982;2022-07-19T03:14:46;2.20;;;1.37;;
4144;SDS011;2086;51.050;6.982;2022-07-19T03:17:11;1.30;;;1.20;;
4144;SDS011;2086;51.050;6.982;2022-07-19T03:19:37;1.93;;;1.70;;
4144;SDS011;2086;51.050;6.982;2022-07-19T03:22:02;1.47;;;1.20;;
4144;SDS011;2086;51.050;6.982;2022-07-19T03:24:27;1.60;;;1.37;;
4144;SDS011;2086;51.050;6.982;2022-07-19T03:26:53;1.03;;;1.03;;
4144;SDS011;2086;51.050;6.982;2022-07-19T03:29:18;2.17;;;2.07;;
4144;SDS011;2086;51.050;6.982;2022-07-19T03:31:43;1.80;;;1.40;;
4144;SDS011;2086;51.050;6.982;2022-07-19T03:34:08;2.50;;;1.20;;
4144;SDS011;2086;51.050;6.982;2022-07-19T03:36:34;4.23;;;1.03;;
4144;SDS011;2086;51.050;6.982;2022-07-19T03:38:59;1.10;;;1.10;;
4144;SDS011;2086;51.050;6.982;2022-07-19T03:41:24;1.20;;;1.10;;
4144;SDS011;2086;51.050;6.982;2022-07-19T03:43:49;1.00;;;1.00;;
4144;SDS011;2086;51.050;6.982;2022-07-19T03:46:15;1.30;;;1.20;;
4144;SDS011;2086;51.050;6.982;2022-07-19T03:48:40;1.53;;;1.30;;
4144;SDS011;2086;51.050;6.982;2022-07-19T03:51:05;1.40;;;1.10;;
4144;SDS011;2086;51.050;6.982;2022-07-19T03:53:31;1.60;;;1.50;;
4144;SDS011;2086;51.050;6.982;2022-07-19T03:55:56;1.50;;;1.40;;
4144;SDS011;2086;51.050;6.982;2022-07-19T03:58:21;7.90;;;1.90;;
4144;SDS011;2086;51.050;6.982;2022-07-19T04:00:47;1.37;;;1.27;;
4144;SDS011;2086;51.050;6.982;2022-07-19T04:03:12;1.43;;;1.07;;
4144;SDS011;2086;51.050;6.982;2022-07-19T04:05:37;3.80;;;1.57;;
4144;SDS011;2086;51.050;6.982;2022-07-19T04:08:03;4.60;;;1.60;;
4144;SDS011;2086;51.050;6.982;2022-07-19T04:10:28;1.40;;;1.30;;
4144;SDS011;2086;51.050;6.982;2022-07-19T04:12:53;2.50;;;1.50;;
4144;SDS011;2086;51.050;6.982;2022-07-19T04:15:19;1.60;;;1.50;;
4144;SDS011;2086;51.050;6.982;2022-07-19T04:17:44;1.40;;;1.30;;
4144;SDS011;2086;51.050;6.982;2022-07-19T04:20:09;1.83;;;1.70;;
4144;SDS011;2086;51.050;6.982;2022-07-19T04:22:35;1.60;;;1.50;;
4144;SDS011;2086;51.050;6.982;2022-07-19T04:25:00;1.90;;;1.80;;
4144;SDS011;2086;51.050;6.982;2022-07-19T04:27:27;1.10;;;1.00;;
4144;SDS011;2086;51.050;6.982;2022-07-19T04:29:52;4.00;;;2.10;;
4144;SDS011;2086;51.050;6.982;2022-07-19T04:32:18;1.40;;;1.30;;
4144;SDS011;2086;51.050;6.982;2022-07-19T04:34:43;1.23;;;1.13;;
4144;SDS011;2086;51.050;6.982;2022-07-19T04:37:08;1.40;;;1.30;;
4144;SDS011;2086;51.050;6.982;2022-07-19T04:39:33;1.37;;;1.27;;
4144;SDS011;2086;51.050;6.982;2022-07-19T04:41:59;1.53;;;1.43;;
4144;SDS011;2086;51.050;6.982;2022-07-19T04:44:24;1.60;;;1.50;;
4144;SDS011;2086;51.050;6.982;2022-07-19T04:46:49;1.47;;;1.37;;
4144;SDS011;2086;51.050;6.982;2022-07-19T04:49:14;1.37;;;1.07;;
4144;SDS011;2086;51.050;6.982;2022-07-19T04:51:40;1.90;;;1.70;;
4144;SDS011;2086;51.050;6.982;2022-07-19T04:54:05;1.57;;;1.47;;
4144;SDS011;2086;51.050;6.982;2022-07-19T04:56:30;3.17;;;1.50;;
4144;SDS011;2086;51.050;6.982;2022-07-19T04:58:55;1.37;;;1.27;;
4144;SDS011;2086;51.050;6.982;2022-07-19T05:01:21;1.57;;;1.47;;
4144;SDS011;2086;51.050;6.982;2022-07-19T05:03:46;1.77;;;1.67;;
4144;SDS011;2086;51.050;6.982;2022-07-19T05:06:11;1.37;;;1.30;;
4144;SDS011;2086;51.050;6.982;2022-07-19T05:08:36;1.70;;;1.33;;
4144;SDS011;2086;51.050;6.982;2022-07-19T05:11:02;1.50;;;1.23;;
4144;SDS011;2086;51.050;6.982;2022-07-19T05:13:27;2.27;;;1.60;;
4144;SDS011;2086;51.050;6.982;2022-07-19T05:15:52;1.33;;;1.23;;
4144;SDS011;2086;51.050;6.982;2022-07-19T05:18:18;7.63;;;1.70;;
4144;SDS011;2086;51.050;6.982;2022-07-19T05:20:43;1.43;;;1.33;;
4144;SDS011;2086;51.050;6.982;2022-07-19T05:23:08;1.57;;;1.47;;
4144;SDS011;2086;51.050;6.982;2022-07-19T05:25:34;1.50;;;1.40;;
4144;SDS011;2086;51.050;6.982;2022-07-19T05:27:59;1.30;;;1.20;;
4144;SDS011;2086;51.050;6.982;2022-07-19T05:30:24;2.13;;;1.63;;
4144;SDS011;2086;51.050;6.982;2022-07-19T05:32:49;3.13;;;1.23;;
4144;SDS011;2086;51.050;6.982;2022-07-19T05:35:15;2.50;;;1.67;;
4144;SDS011;2086;51.050;6.982;2022-07-19T05:37:40;4.43;;;1.30;;
4144;SDS011;2086;51.050;6.982;2022-07-19T05:40:05;2.30;;;1.30;;
4144;SDS011;2086;51.050;6.982;2022-07-19T05:42:31;1.57;;;1.57;;
4144;SDS011;2086;51.050;6.982;2022-07-19T05:44:56;1.10;;;1.10;;
4144;SDS011;2086;51.050;6.982;2022-07-19T05:47:21;1.20;;;1.20;;
4144;SDS011;2086;51.050;6.982;2022-07-19T05:49:46;1.93;;;1.80;;
4144;SDS011;2086;51.050;6.982;2022-07-19T05:52:12;4.10;;;1.53;;
4144;SDS011;2086;51.050;6.982;2022-07-19T05:54:37;1.47;;;1.37;;
4144;SDS011;2086;51.050;6.982;2022-07-19T05:57:02;5.50;;;1.13;;
4144;SDS011;2086;51.050;6.982;2022-07-19T05:59:27;2.50;;;1.40;;
4144;SDS011;2086;51.050;6.982;2022-07-19T06:01:53;2.27;;;1.90;;
4144;SDS011;2086;51.050;6.982;2022-07-19T06:04:18;12.97;;;3.63;;
4144;SDS011;2086;51.050;6.982;2022-07-19T06:06:43;2.37;;;1.60;;
4144;SDS011;2086;51.050;6.982;2022-07-19T06:09:09;2.90;;;2.33;;
4144;SDS011;2086;51.050;6.982;2022-07-19T06:11:37;2.03;;;1.10;;
4144;SDS011;2086;51.050;6.982;2022-07-19T06:14:02;1.70;;;1.37;;
4144;SDS011;2086;51.050;6.982;2022-07-19T06:16:28;1.10;;;1.00;;
4144;SDS011;2086;51.050;6.982;2022-07-19T06:18:53;1.10;;;0.83;;
4144;SDS011;2086;51.050;6.982;2022-07-19T06:21:19;0.90;;;0.90;;
4144;SDS011;2086;51.050;6.982;2022-07-19T06:23:45;1.70;;;1.00;;
4144;SDS011;2086;51.050;6.982;2022-07-19T06:26:11;3.93;;;1.63;;
4144;SDS011;2086;51.050;6.982;2022-07-19T06:28:36;1.77;;;1.50;;
4144;SDS011;2086;51.050;6.982;2022-07-19T06:31:01;2.47;;;2.00;;
4144;SDS011;2086;51.050;6.982;2022-07-19T06:33:27;0.70;;;0.70;;
4144;SDS011;2086;51.050;6.982;2022-07-19T06:35:52;1.50;;;1.40;;
4144;SDS011;2086;51.050;6.982;2022-07-19T06:38:17;1.07;;;1.07;;
4144;SDS011;2086;51.050;6.982;2022-07-19T06:40:42;0.80;;;0.80;;
4144;SDS011;2086;51.050;6.982;2022-07-19T06:43:08;1.53;;;1.43;;
4144;SDS011;2086;51.050;6.982;2022-07-19T06:45:33;1.93;;;1.70;;
4144;SDS011;2086;51.050;6.982;2022-07-19T06:47:59;1.10;;;1.00;;
4144;SDS011;2086;51.050;6.982;2022-07-19T06:50:24;3.30;;;1.03;;
4144;SDS011;2086;51.050;6.982;2022-07-19T06:52:50;2.60;;;1.30;;
4144;SDS011;2086;51.050;6.982;2022-07-19T06:55:15;1.10;;;1.10;;
4144;SDS011;2086;51.050;6.982;2022-07-19T06:57:40;1.50;;;1.40;;
4144;SDS011;2086;51.050;6.982;2022-07-19T07:00:06;1.20;;;1.03;;
4144;SDS011;2086;51.050;6.982;2022-07-19T07:02:32;2.20;;;1.27;;
4144;SDS011;2086;51.050;6.982;2022-07-19T07:04:58;1.53;;;1.43;;
4144;SDS011;2086;51.050;6.982;2022-07-19T07:07:23;1.20;;;1.20;;
4144;SDS011;2086;51.050;6.982;2022-07-19T07:09:48;1.30;;;1.20;;
4144;SDS011;2086;51.050;6.982;2022-07-19T07:12:13;1.20;;;1.10;;
4144;SDS011;2086;51.050;6.982;2022-07-19T07:14:39;1.10;;;1.10;;
4144;SDS011;2086;51.050;6.982;2022-07-19T07:17:04;1.93;;;1.83;;
4144;SDS011;2086;51.050;6.982;2022-07-19T07:19:29;1.33;;;1.33;;
4144;SDS011;2086;51.050;6.982;2022-07-19T07:21:54;1.47;;;1.20;;
4144;SDS011;2086;51.050;6.982;2022-07-19T07:24:22;1.70;;;1.60;;
4144;SDS011;2086;51.050;6.982;2022-07-19T07:26:47;1.30;;;1.20;;
4144;SDS011;2086;51.050;6.982;2022-07-19T07:29:12;2.87;;;1.27;;
4144;SDS011;2086;51.050;6.982;2022-07-19T07:31:38;2.70;;;1.40;;
4144;SDS011;2086;51.050;6.982;2022-07-19T07:34:03;4.97;;;0.70;;
4144;SDS011;2086;51.050;6.982;2022-07-19T07:36:28;2.83;;;1.20;;
4144;SDS011;2086;51.050;6.982;2022-07-19T07:38:54;2.93;;;0.83;;
4144;SDS011;2086;51.050;6.982;2022-07-19T07:41:19;1.10;;;1.10;;
4144;SDS011;2086;51.050;6.982;2022-07-19T07:43:44;1.13;;;1.03;;
4144;SDS011;2086;51.050;6.982;2022-07-19T07:46:09;1.47;;;1.37;;
4144;SDS011;2086;51.050;6.982;2022-07-19T07:48:35;1.50;;;1.40;;
4144;SDS011;2086;51.050;6.982;2022-07-19T07:51:00;2.43;;;2.33;;
4144;SDS011;2086;51.050;6.982;2022-07-19T07:53:25;1.73;;;1.60;;
4144;SDS011;2086;51.050;6.982;2022-07-19T07:55:50;1.60;;;1.50;;
4144;SDS011;2086;51.050;6.982;2022-07-19T07:58:16;1.33;;;1.00;;
4144;SDS011;2086;51.050;6.982;2022-07-19T08:00:41;1.27;;;0.80;;
4144;SDS011;2086;51.050;6.982;2022-07-19T08:03:06;1.43;;;0.70;;
4144;SDS011;2086;51.050;6.982;2022-07-19T08:05:32;1.27;;;1.00;;
4144;SDS011;2086;51.050;6.982;2022-07-19T08:07:58;0.80;;;0.80;;
4144;SDS011;2086;51.050;6.982;2022-07-19T08:10:24;0.90;;;0.90;;
4144;SDS011;2086;51.050;6.982;2022-07-19T08:12:50;1.70;;;0.50;;
4144;SDS011;2086;51.050;6.982;2022-07-19T08:15:15;0.60;;;0.53;;
4144;SDS011;2086;51.050;6.982;2022-07-19T08:17:41;0.83;;;0.83;;
4144;SDS011;2086;51.050;6.982;2022-07-19T08:20:06;0.97;;;0.87;;
4144;SDS011;2086;51.050;6.982;2022-07-19T08:22:32;1.10;;;0.90;;
4144;SDS011;2086;51.050;6.982;2022-07-19T08:24:57;0.87;;;0.87;;
4144;SDS011;2086;51.050;6.982;2022-07-19T08:27:22;1.00;;;0.70;;
4144;SDS011;2086;51.050;6.982;2022-07-19T08:29:48;0.60;;;0.60;;
4144;SDS011;2086;51.050;6.982;2022-07-19T08:32:13;0.80;;;0.80;;
4144;SDS011;2086;51.050;6.982;2022-07-19T08:34:38;1.03;;;0.70;;
4144;SDS011;2086;51.050;6.982;2022-07-19T08:37:03;0.90;;;0.90;;
4144;SDS011;2086;51.050;6.982;2022-07-19T08:39:29;4.20;;;1.50;;
4144;SDS011;2086;51.050;6.982;2022-07-19T08:41:54;2.80;;;1.03;;
4144;SDS011;2086;51.050;6.982;2022-07-19T08:44:20;0.83;;;0.83;;
4144;SDS011;2086;51.050;6.982;2022-07-19T08:46:46;1.83;;;0.67;;
4144;SDS011;2086;51.050;6.982;2022-07-19T08:49:13;2.10;;;0.93;;
4144;SDS011;2086;51.050;6.982;2022-07-19T08:51:39;0.43;;;0.40;;
4144;SDS011;2086;51.050;6.982;2022-07-19T08:54:05;1.30;;;1.23;;
4144;SDS011;2086;51.050;6.982;2022-07-19T08:56:31;0.73;;;0.60;;
4144;SDS011;2086;51.050;6.982;2022-07-19T08:59:15;1.37;;;0.50;;
4144;SDS011;2086;51.050;6.982;2022-07-19T09:01:40;0.60;;;0.60;;
4144;SDS011;2086;51.050;6.982;2022-07-19T09:07:04;0.70;;;0.70;;
4144;SDS011;2086;51.050;6.982;2022-07-19T09:09:29;0.70;;;0.60;;
4144;SDS011;2086;51.050;6.982;2022-07-19T09:11:55;0.60;;;0.60;;
4144;SDS011;2086;51.050;6.982;2022-07-19T09:14:25;0.73;;;0.73;;
4144;SDS011;2086;51.050;6.982;2022-07-19T09:19:16;0.63;;;0.63;;
4144;SDS011;2086;51.050;6.982;2022-07-19T09:21:54;0.90;;;0.90;;
4144;SDS011;2086;51.050;6.982;2022-07-19T09:24:20;0.60;;;0.60;;
4144;SDS011;2086;51.050;6.982;2022-07-19T09:26:55;1.10;;;0.73;;
4144;SDS011;2086;51.050;6.982;2022-07-19T09:29:20;0.60;;;0.60;;
4144;SDS011;2086;51.050;6.982;2022-07-19T09:32:05;0.82;;;0.82;;
4144;SDS011;2086;51.050;6.982;2022-07-19T09:34:35;0.70;;;0.60;;
4144;SDS011;2086;51.050;6.982;2022-07-19T09:37:14;2.25;;;0.75;;
4144;SDS011;2086;51.050;6.982;2022-07-19T09:39:40;0.60;;;0.60;;
4144;SDS011;2086;51.050;6.982;2022-07-19T09:42:09;0.70;;;0.70;;
4144;SDS011;2086;51.050;6.982;2022-07-19T09:44:34;0.60;;;0.60;;
4144;SDS011;2086;51.050;6.982;2022-07-19T09:47:00;1.60;;;0.60;;
4144;SDS011;2086;51.050;6.982;2022-07-19T09:49:25;0.73;;;0.73;;
4144;SDS011;2086;51.050;6.982;2022-07-19T09:51:52;0.60;;;0.60;;
4144;SDS011;2086;51.050;6.982;2022-07-19T09:54:18;0.75;;;0.60;;
4144;SDS011;2086;51.050;6.982;2022-07-19T09:56:44;0.80;;;0.80;;
4144;SDS011;2086;51.050;6.982;2022-07-19T09:59:10;0.77;;;0.77;;
4144;SDS011;2086;51.050;6.982;2022-07-19T10:01:36;0.60;;;0.60;;
4144;SDS011;2086;51.050;6.982;2022-07-19T10:04:12;0.40;;;0.40;;
4144;SDS011;2086;51.050;6.982;2022-07-19T10:06:38;0.95;;;0.70;;
4144;SDS011;2086;51.050;6.982;2022-07-19T10:09:04;0.68;;;0.68;;
4144;SDS011;2086;51.050;6.982;2022-07-19T10:11:30;0.50;;;0.50;;
4144;SDS011;2086;51.050;6.982;2022-07-19T10:13:56;0.60;;;0.60;;
4144;SDS011;2086;51.050;6.982;2022-07-19T10:16:24;0.55;;;0.50;;
4144;SDS011;2086;51.050;6.982;2022-07-19T10:18:59;0.85;;;0.85;;
4144;SDS011;2086;51.050;6.982;2022-07-19T10:21:26;0.65;;;0.52;;
4144;SDS011;2086;51.050;6.982;2022-07-19T10:23:51;0.60;;;0.60;;
4144;SDS011;2086;51.050;6.982;2022-07-19T10:29:12;3.15;;;0.50;;
4144;SDS011;2086;51.050;6.982;2022-07-19T10:31:39;2.78;;;0.60;;
4144;SDS011;2086;51.050;6.982;2022-07-19T10:34:11;0.77;;;0.77;;
4144;SDS011;2086;51.050;6.982;2022-07-19T10:36:45;0.40;;;0.40;;
4144;SDS011;2086;51.050;6.982;2022-07-19T10:44:26;0.55;;;0.50;;
4144;SDS011;2086;51.050;6.982;2022-07-19T10:46:52;1.60;;;0.43;;
4144;SDS011;2086;51.050;6.982;2022-07-19T10:52:31;0.73;;;0.73;;
4144;SDS011;2086;51.050;6.982;2022-07-19T10:55:23;0.90;;;0.90;;
4144;SDS011;2086;51.050;6.982;2022-07-19T10:57:37;0.80;;;0.50;;
4144;SDS011;2086;51.050;6.982;2022-07-19T11:00:40;1.05;;;0.80;;
4144;SDS011;2086;51.050;6.982;2022-07-19T11:05:46;1.35;;;0.73;;
4144;SDS011;2086;51.050;6.982;2022-07-19T11:08:11;0.65;;;0.65;;
4144;SDS011;2086;51.050;6.982;2022-07-19T11:10:37;1.00;;;0.40;;
4144;SDS011;2086;51.050;6.982;2022-07-19T11:13:02;0.60;;;0.60;;
4144;SDS011;2086;51.050;6.982;2022-07-19T11:15:27;0.60;;;0.60;;
4144;SDS011;2086;51.050;6.982;2022-07-19T11:17:57;0.50;;;0.50;;
4144;SDS011;2086;51.050;6.982;2022-07-19T11:20:24;0.70;;;0.70;;
4144;SDS011;2086;51.050;6.982;2022-07-19T11:22:49;2.50;;;0.50;;
4144;SDS011;2086;51.050;6.982;2022-07-19T11:25:15;0.40;;;0.40;;
4144;SDS011;2086;51.050;6.982;2022-07-19T11:27:41;0.95;;;0.95;;
4144;SDS011;2086;51.050;6.982;2022-07-19T11:30:08;0.70;;;0.70;;
4144;SDS011;2086;51.050;6.982;2022-07-19T11:32:34;5.45;;;0.60;;
4144;SDS011;2086;51.050;6.982;2022-07-19T11:35:00;0.60;;;0.60;;
4144;SDS011;2086;51.050;6.982;2022-07-19T11:37:26;0.98;;;0.98;;
4144;SDS011;2086;51.050;6.982;2022-07-19T11:39:52;0.40;;;0.40;;
4144;SDS011;2086;51.050;6.982;2022-07-19T11:42:31;0.70;;;0.70;;
4144;SDS011;2086;51.050;6.982;2022-07-19T11:44:57;9.70;;;0.85;;
4144;SDS011;2086;51.050;6.982;2022-07-19T11:47:22;1.48;;;0.50;;
4144;SDS011;2086;51.050;6.982;2022-07-19T11:49:47;1.23;;;0.50;;
4144;SDS011;2086;51.050;6.982;2022-07-19T11:52:13;0.68;;;0.68;;
4144;SDS011;2086;51.050;6.982;2022-07-19T11:54:38;1.02;;;0.95;;
4144;SDS011;2086;51.050;6.982;2022-07-19T11:57:03;0.52;;;0.52;;
4144;SDS011;2086;51.050;6.982;2022-07-19T11:59:29;0.77;;;0.60;;
4144;SDS011;2086;51.050;6.982;2022-07-19T12:01:54;0.57;;;0.57;;
4144;SDS011;2086;51.050;6.982;2022-07-19T12:04:20;0.55;;;0.55;;
4144;SDS011;2086;51.050;6.982;2022-07-19T12:06:46;1.05;;;0.82;;
4144;SDS011;2086;51.050;6.982;2022-07-19T12:09:13;2.65;;;0.70;;
4144;SDS011;2086;51.050;6.982;2022-07-19T12:11:44;0.80;;;0.80;;
4144;SDS011;2086;51.050;6.982;2022-07-19T12:14:16;0.63;;;0.63;;
4144;SDS011;2086;51.050;6.982;2022-07-19T12:16:42;0.60;;;0.60;;
4144;SDS011;2086;51.050;6.982;2022-07-19T12:19:09;0.57;;;0.57;;
4144;SDS011;2086;51.050;6.982;2022-07-19T12:26:36;0.40;;;0.40;;
4144;SDS011;2086;51.050;6.982;2022-07-19T12:29:01;0.80;;;0.60;;
4144;SDS011;2086;51.050;6.982;2022-07-19T12:31:46;1.08;;;0.77;;
4144;SDS011;2086;51.050;6.982;2022-07-19T12:34:12;0.50;;;0.50;;
4144;SDS011;2086;51.050;6.982;2022-07-19T12:36:38;0.60;;;0.60;;
4144;SDS011;2086;51.050;6.982;2022-07-19T12:39:03;1.10;;;0.43;;
4144;SDS011;2086;51.050;6.982;2022-07-19T12:41:29;0.80;;;0.80;;
4144;SDS011;2086;51.050;6.982;2022-07-19T12:43:54;0.73;;;0.73;;
4144;SDS011;2086;51.050;6.982;2022-07-19T12:46:20;0.73;;;0.63;;
4144;SDS011;2086;51.050;6.982;2022-07-19T12:48:45;2.30;;;0.68;;
4144;SDS011;2086;51.050;6.982;2022-07-19T12:51:10;0.93;;;0.60;;
4144;SDS011;2086;51.050;6.982;2022-07-19T12:53:35;0.70;;;0.70;;
4144;SDS011;2086;51.050;6.982;2022-07-19T12:56:01;0.50;;;0.50;;
4144;SDS011;2086;51.050;6.982;2022-07-19T12:58:26;2.38;;;0.90;;
4144;SDS011;2086;51.050;6.982;2022-07-19T13:01:09;0.63;;;0.63;;
4144;SDS011;2086;51.050;6.982;2022-07-19T13:03:38;0.80;;;0.80;;
4144;SDS011;2086;51.050;6.982;2022-07-19T13:06:04;0.70;;;0.70;;
4144;SDS011;2086;51.050;6.982;2022-07-19T13:08:29;0.57;;;0.57;;
4144;SDS011;2086;51.050;6.982;2022-07-19T13:10:55;0.60;;;0.60;;
4144;SDS011;2086;51.050;6.982;2022-07-19T13:13:20;0.60;;;0.60;;
4144;SDS011;2086;51.050;6.982;2022-07-19T13:15:46;0.82;;;0.82;;
4144;SDS011;2086;51.050;6.982;2022-07-19T13:18:11;0.50;;;0.50;;
4144;SDS011;2086;51.050;6.982;2022-07-19T13:20:37;0.75;;;0.75;;
4144;SDS011;2086;51.050;6.982;2022-07-19T13:23:02;0.93;;;0.60;;
4144;SDS011;2086;51.050;6.982;2022-07-19T13:25:28;0.60;;;0.60;;
4144;SDS011;2086;51.050;6.982;2022-07-19T13:27:53;0.73;;;0.73;;
4144;SDS011;2086;51.050;6.982;2022-07-19T13:30:18;1.27;;;0.50;;
4144;SDS011;2086;51.050;6.982;2022-07-19T13:32:44;1.95;;;0.70;;
4144;SDS011;2086;51.050;6.982;2022-07-19T13:35:09;0.50;;;0.50;;
4144;SDS011;2086;51.050;6.982;2022-07-19T13:37:34;1.00;;;0.60;;
4144;SDS011;2086;51.050;6.982;2022-07-19T13:39:59;0.70;;;0.50;;
4144;SDS011;2086;51.050;6.982;2022-07-19T13:42:25;0.55;;;0.55;;
4144;SDS011;2086;51.050;6.982;2022-07-19T13:44:50;0.60;;;0.60;;
4144;SDS011;2086;51.050;6.982;2022-07-19T13:47:15;0.60;;;0.60;;
4144;SDS011;2086;51.050;6.982;2022-07-19T13:49:41;0.50;;;0.50;;
4144;SDS011;2086;51.050;6.982;2022-07-19T13:52:06;0.73;;;0.73;;
4144;SDS011;2086;51.050;6.982;2022-07-19T13:54:31;1.35;;;0.60;;
4144;SDS011;2086;51.050;6.982;2022-07-19T13:56:56;0.60;;;0.60;;
4144;SDS011;2086;51.050;6.982;2022-07-19T13:59:22;0.50;;;0.50;;
4144;SDS011;2086;51.050;6.982;2022-07-19T14:01:47;1.95;;;0.75;;
4144;SDS011;2086;51.050;6.982;2022-07-19T14:04:12;0.60;;;0.60;;
4144;SDS011;2086;51.050;6.982;2022-07-19T14:06:38;1.27;;;0.50;;
4144;SDS011;2086;51.050;6.982;2022-07-19T14:09:03;2.25;;;0.60;;
4144;SDS011;2086;51.050;6.982;2022-07-19T14:11:29;0.80;;;0.80;;
4144;SDS011;2086;51.050;6.982;2022-07-19T14:13:54;0.75;;;0.75;;
4144;SDS011;2086;51.050;6.982;2022-07-19T14:16:19;1.20;;;0.60;;
4144;SDS011;2086;51.050;6.982;2022-07-19T14:18:44;0.60;;;0.60;;
4144;SDS011;2086;51.050;6.982;2022-07-19T14:21:10;0.73;;;0.73;;
4144;SDS011;2086;51.050;6.982;2022-07-19T14:23:36;0.60;;;0.60;;
4144;SDS011;2086;51.050;6.982;2022-07-19T14:26:01;1.02;;;0.70;;
4144;SDS011;2086;51.050;6.982;2022-07-19T14:28:26;1.08;;;1.08;;
4144;SDS011;2086;51.050;6.982;2022-07-19T14:30:51;0.93;;;0.77;;
4144;SDS011;2086;51.050;6.982;2022-07-19T14:33:17;0.80;;;0.63;;
4144;SDS011;2086;51.050;6.982;2022-07-19T14:35:43;2.55;;;0.90;;
4144;SDS011;2086;51.050;6.982;2022-07-19T14:38:08;0.73;;;0.73;;
4144;SDS011;2086;51.050;6.982;2022-07-19T14:40:34;0.80;;;0.80;;
4144;SDS011;2086;51.050;6.982;2022-07-19T14:42:59;2.30;;;0.95;;
4144;SDS011;2086;51.050;6.982;2022-07-19T14:45:25;0.80;;;0.80;;
4144;SDS011;2086;51.050;6.982;2022-07-19T14:47:50;0.73;;;0.73;;
4144;SDS011;2086;51.050;6.982;2022-07-19T14:50:16;1.23;;;1.10;;
4144;SDS011;2086;51.050;6.982;2022-07-19T14:52:41;0.60;;;0.60;;
4144;SDS011;2086;51.050;6.982;2022-07-19T14:55:07;0.80;;;0.80;;
4144;SDS011;2086;51.050;6.982;2022-07-19T14:57:33;0.95;;;0.95;;
4144;SDS011;2086;51.050;6.982;2022-07-19T14:59:58;3.92;;;0.65;;
4144;SDS011;2086;51.050;6.982;2022-07-19T15:02:24;0.77;;;0.77;;
4144;SDS011;2086;51.050;6.982;2022-07-19T15:04:49;0.85;;;0.85;;
4144;SDS011;2086;51.050;6.982;2022-07-19T15:07:15;3.05;;;0.75;;
4144;SDS011;2086;51.050;6.982;2022-07-19T15:09:40;0.98;;;0.98;;
4144;SDS011;2086;51.050;6.982;2022-07-19T15:12:05;1.08;;;1.08;;
4144;SDS011;2086;51.050;6.982;2022-07-19T15:14:31;1.05;;;0.95;;
4144;SDS011;2086;51.050;6.982;2022-07-19T15:16:57;0.90;;;0.90;;
4144;SDS011;2086;51.050;6.982;2022-07-19T15:19:22;1.25;;;1.10;;
4144;SDS011;2086;51.050;6.982;2022-07-19T15:21:48;0.98;;;0.98;;
4144;SDS011;2086;51.050;6.982;2022-07-19T15:24:13;1.10;;;1.00;;
4144;SDS011;2086;51.050;6.982;2022-07-19T15:26:38;1.30;;;1.20;;
4144;SDS011;2086;51.050;6.982;2022-07-19T15:29:03;2.97;;;0.93;;
4144;SDS011;2086;51.050;6.982;2022-07-19T15:31:29;1.13;;;1.00;;